Time;durP1;ratioP1;P1;durP2;ratioP2;P2;SDS_P1;SDS_P2;PMS_P1;PMS_P2;Temp;Humidity;BMP_temperature;BMP_pressure;BME280_temperature;BME280_humidity;BME280_pressure;Samples;Min_cycle;Max_cycle;Signal;HPM_P1;HPM_P2
2021/10/01 00:01:56;;;;;;;8.23;3.50;;;11.90;99.90;;;;;;4114197;28;20505;-71
2021/10/01 00:03:57;;;;;;;9.43;3.30;;;11.80;99.90;;;;;;4089270;28;20031;-72
2021/10/01 00:05:58;;;;;;;9.18;3.20;;;11.80;99.90;;;;;;4127009;28;20070;-72
2021/10/01 00:07:59;;;;;;;8.40;3.67;;;11.80;99.90;;;;;;4099072;28;20035;-72
2021/10/01 00:09:59;;;;;;;6.90;4.10;;;11.90;99.90;;;;;;4113910;28;20049;-71
2021/10/01 00:12:00;;;;;;;6.80;3.65;;;12.00;99.90;;;;;;4124980;28;20470;-72
2021/10/01 00:14:01;;;;;;;10.27;3.67;;;12.00;99.90;;;;;;4115508;28;20058;-73
2021/10/01 00:16:03;;;;;;;9.05;3.58;;;12.00;99.90;;;;;;4111933;28;20459;-73
2021/10/01 00:18:04;;;;;;;6.82;3.53;;;12.00;99.90;;;;;;4114383;28;20042;-73
2021/10/01 00:20:06;;;;;;;7.55;3.63;;;12.00;99.90;;;;;;4114603;28;20109;-72
2021/10/01 00:22:07;;;;;;;9.45;3.63;;;12.10;99.90;;;;;;4130866;28;20109;-72
2021/10/01 00:24:08;;;;;;;9.10;3.53;;;12.00;99.90;;;;;;4107697;28;20156;-72
2021/10/01 00:26:09;;;;;;;6.03;3.67;;;12.10;99.90;;;;;;4105821;28;20038;-72
2021/10/01 00:28:10;;;;;;;6.78;3.28;;;12.00;99.90;;;;;;4115036;28;20038;-72
2021/10/01 00:30:11;;;;;;;6.60;3.35;;;12.00;99.90;;;;;;4112421;28;20435;-71
2021/10/01 00:32:12;;;;;;;8.70;3.75;;;12.00;99.90;;;;;;4127418;28;20092;-72
2021/10/01 00:34:13;;;;;;;5.63;3.63;;;12.00;99.90;;;;;;4114771;28;20039;-72
2021/10/01 00:36:14;;;;;;;6.47;3.28;;;11.90;99.90;;;;;;4111287;28;20050;-73
2021/10/01 00:38:15;;;;;;;5.03;3.08;;;11.80;99.90;;;;;;4112683;28;20035;-73
2021/10/01 00:40:16;;;;;;;7.53;3.30;;;11.70;99.90;;;;;;4098834;28;20066;-72
2021/10/01 00:42:17;;;;;;;7.72;3.92;;;11.70;99.90;;;;;;4121920;28;20054;-72
2021/10/01 00:44:18;;;;;;;7.40;3.63;;;11.70;99.90;;;;;;4114091;28;20038;-73
2021/10/01 00:46:19;;;;;;;5.70;3.65;;;11.70;99.90;;;;;;4111685;28;20126;-72
2021/10/01 00:48:20;;;;;;;10.25;3.70;;;11.80;99.90;;;;;;4112286;28;20501;-71
2021/10/01 00:50:21;;;;;;;7.45;3.80;;;11.80;99.90;;;;;;4108184;28;20051;-71
2021/10/01 00:52:21;;;;;;;8.10;3.80;;;11.80;99.90;;;;;;4113417;28;20113;-72
2021/10/01 00:54:22;;;;;;;6.25;3.85;;;11.90;99.90;;;;;;4129651;28;20045;-72
2021/10/01 00:56:24;;;;;;;8.73;3.53;;;11.80;99.90;;;;;;4097626;28;20046;-72
2021/10/01 00:58:24;;;;;;;6.63;2.85;;;11.80;99.90;;;;;;4131313;28;20049;-72
2021/10/01 01:00:28;;;;;;;6.68;3.40;;;11.70;99.90;;;;;;4109056;28;20043;-72
2021/10/01 01:02:29;;;;;;;6.22;3.28;;;11.70;99.90;;;;;;4113712;28;20042;-71
2021/10/01 01:04:30;;;;;;;7.28;3.65;;;11.80;99.90;;;;;;4115079;28;20057;-71
2021/10/01 01:06:48;;;;;;;4.80;3.13;;;11.90;99.90;;;;;;4098089;28;20122;-72
2021/10/01 01:09:07;;;;;;;10.43;3.10;;;12.00;99.90;;;;;;4113697;28;20105;-71
2021/10/01 01:11:22;;;;;;;11.18;3.60;;;12.00;99.90;;;;;;4112567;28;20101;-71
2021/10/01 01:13:40;;;;;;;8.38;3.67;;;12.00;99.90;;;;;;4112668;28;20041;-71
2021/10/01 01:15:52;;;;;;;5.43;3.25;;;12.00;99.90;;;;;;4113736;28;20097;-72
2021/10/01 01:18:01;;;;;;;5.00;2.78;;;12.00;99.90;;;;;;4098087;28;20098;-71
2021/10/01 01:20:17;;;;;;;6.93;3.55;;;12.10;99.90;;;;;;4112945;28;20042;-72
2021/10/01 01:23:11;;;;;;;10.75;3.38;;;12.10;99.90;;;;;;4128045;28;20032;-71
2021/10/01 01:25:43;;;;;;;6.55;3.00;;;12.10;99.90;;;;;;4128066;28;20080;-71
2021/10/01 01:27:49;;;;;;;4.80;2.40;;;12.10;99.90;;;;;;4128296;28;20062;-71
2021/10/01 01:30:09;;;;;;;8.13;2.95;;;12.20;99.90;;;;;;4114344;28;20043;-71
2021/10/01 01:32:09;;;;;;;10.18;4.03;;;12.20;99.90;;;;;;4101471;28;20043;-71
2021/10/01 01:34:38;;;;;;;12.88;2.88;;;12.30;99.90;;;;;;4118241;28;20038;-72
2021/10/01 01:36:41;;;;;;;8.68;3.13;;;12.40;99.90;;;;;;4110658;28;20046;-72
2021/10/01 01:38:49;;;;;;;7.78;3.40;;;12.40;99.90;;;;;;4122824;28;20071;-71
2021/10/01 01:40:53;;;;;;;7.13;3.17;;;12.50;99.90;;;;;;4096380;28;20043;-71
2021/10/01 01:42:56;;;;;;;3.42;2.60;;;12.50;99.90;;;;;;4113470;28;20386;-72
2021/10/01 01:44:59;;;;;;;4.93;2.42;;;12.60;99.90;;;;;;4110800;28;20038;-72
2021/10/01 01:47:01;;;;;;;5.43;2.58;;;12.60;99.90;;;;;;4110472;28;20042;-72
2021/10/01 01:49:02;;;;;;;4.22;3.13;;;12.60;99.90;;;;;;4112951;28;20045;-72
2021/10/01 01:51:04;;;;;;;5.30;2.60;;;12.60;99.90;;;;;;4126658;28;20066;-72
2021/10/01 01:53:06;;;;;;;6.53;3.00;;;12.50;99.90;;;;;;4099363;28;20514;-72
2021/10/01 01:55:09;;;;;;;4.57;3.00;;;12.30;99.90;;;;;;4127923;28;20046;-72
2021/10/01 01:57:10;;;;;;;7.75;3.42;;;12.20;99.90;;;;;;4108473;28;20106;-72
2021/10/01 01:59:12;;;;;;;7.78;2.72;;;12.20;99.90;;;;;;4123437;28;20046;-72
2021/10/01 02:01:13;;;;;;;11.85;3.00;;;12.20;99.90;;;;;;4110860;28;20034;-72
2021/10/01 02:03:16;;;;;;;4.28;2.60;;;12.20;99.90;;;;;;4128508;28;20469;-73
2021/10/01 02:05:18;;;;;;;6.18;3.10;;;12.20;99.90;;;;;;4115757;28;20026;-73
2021/10/01 02:07:20;;;;;;;6.30;2.83;;;12.30;99.90;;;;;;4124235;28;20605;-73
2021/10/01 02:09:23;;;;;;;8.32;2.80;;;12.30;99.90;;;;;;4095881;28;20091;-72
2021/10/01 02:11:25;;;;;;;;;;;12.30;99.90;;;;;;4119894;28;20042;-72
2021/10/01 02:13:28;;;;;;;10.50;2.90;;;12.30;99.90;;;;;;4103543;28;19945;-72
2021/10/01 02:15:32;;;;;;;10.73;3.58;;;12.20;99.90;;;;;;4114020;28;20090;-73
2021/10/01 02:17:36;;;;;;;9.98;2.60;;;12.30;99.90;;;;;;4113446;28;20106;-72
2021/10/01 02:19:39;;;;;;;5.00;3.28;;;12.30;99.90;;;;;;4111445;28;20039;-72
2021/10/01 02:21:42;;;;;;;6.72;3.38;;;12.30;99.90;;;;;;4113225;28;20131;-72
2021/10/01 02:23:43;;;;;;;5.95;2.90;;;12.40;99.90;;;;;;4111626;28;20039;-72
2021/10/01 02:28:12;;;;;;;5.35;2.53;;;12.30;99.90;;;;;;4125930;28;20121;-72
2021/10/01 02:30:20;;;;;;;7.95;3.28;;;12.20;99.90;;;;;;4126906;28;20035;-72
2021/10/01 02:32:47;;;;;;;8.38;3.92;;;12.30;99.90;;;;;;4112482;28;20074;-71
2021/10/01 02:34:49;;;;;;;6.03;3.35;;;12.30;99.90;;;;;;4124310;28;20090;-72
2021/10/01 02:36:50;;;;;;;5.40;3.05;;;12.30;99.90;;;;;;4113563;28;20053;-72
2021/10/01 02:38:52;;;;;;;6.63;3.03;;;12.30;99.90;;;;;;4110786;28;20498;-73
2021/10/01 02:40:53;;;;;;;11.65;3.22;;;12.30;99.90;;;;;;4112362;28;20417;-72
2021/10/01 02:42:54;;;;;;;10.30;3.30;;;12.30;99.90;;;;;;4124595;28;20038;-72
2021/10/01 02:44:55;;;;;;;4.80;3.33;;;12.30;99.90;;;;;;4097113;28;20047;-72
2021/10/01 02:46:56;;;;;;;6.68;3.65;;;12.30;99.90;;;;;;4113685;28;20070;-72
2021/10/01 02:48:58;;;;;;;5.88;3.30;;;12.20;99.90;;;;;;4127404;28;20098;-72
2021/10/01 02:51:02;;;;;;;5.20;2.85;;;12.20;99.90;;;;;;4112598;28;20043;-72
2021/10/01 02:53:32;;;;;;;8.40;3.25;;;12.20;99.90;;;;;;4111649;28;20526;-73
2021/10/01 02:55:51;;;;;;;4.88;3.28;;;12.40;99.90;;;;;;4095887;28;20035;-72
2021/10/01 02:58:10;;;;;;;7.22;3.15;;;12.30;99.90;;;;;;4122860;28;20109;-72
2021/10/01 03:00:11;;;;;;;10.35;3.65;;;12.30;99.90;;;;;;4111076;28;20039;-72
2021/10/01 03:02:14;;;;;;;5.10;3.03;;;12.30;99.90;;;;;;4125746;28;20065;-72
2021/10/01 03:04:16;;;;;;;11.10;3.50;;;12.30;99.90;;;;;;4098858;28;20039;-72
2021/10/01 03:06:20;;;;;;;5.18;2.63;;;12.30;99.90;;;;;;4100045;28;20502;-72
2021/10/01 03:08:25;;;;;;;5.38;3.13;;;12.30;99.90;;;;;;4122540;28;20054;-72
2021/10/01 03:10:28;;;;;;;8.77;3.28;;;12.30;99.90;;;;;;4112823;28;20054;-72
2021/10/01 03:12:30;;;;;;;6.65;3.10;;;12.30;99.90;;;;;;4113660;28;20046;-70
2021/10/01 03:14:32;;;;;;;11.18;3.50;;;12.20;99.90;;;;;;4113701;28;20093;-72
2021/10/01 03:16:35;;;;;;;9.10;3.50;;;12.20;99.90;;;;;;4127721;28;20081;-72
2021/10/01 03:18:37;;;;;;;8.85;3.25;;;12.20;99.90;;;;;;4112900;28;20038;-72
2021/10/01 03:20:37;;;;;;;9.80;3.70;;;12.20;99.90;;;;;;4112136;28;20554;-73
2021/10/01 03:22:40;;;;;;;8.35;3.53;;;12.20;99.90;;;;;;4130798;28;20063;-72
2021/10/01 03:24:42;;;;;;;3.95;2.95;;;12.20;99.90;;;;;;4113628;28;20047;-72
2021/10/01 03:26:44;;;;;;;7.40;2.88;;;12.10;99.90;;;;;;4113113;28;20063;-72
2021/10/01 03:28:45;;;;;;;6.07;3.78;;;12.10;99.90;;;;;;4114911;28;20054;-72
2021/10/01 03:30:47;;;;;;;5.30;3.03;;;12.10;99.90;;;;;;4117142;28;20125;-72
2021/10/01 03:32:48;;;;;;;10.23;2.80;;;12.20;99.90;;;;;;4100216;28;20502;-71
2021/10/01 03:34:49;;;;;;;5.75;2.83;;;12.20;99.90;;;;;;4116737;28;20085;-72
2021/10/01 03:36:50;;;;;;;8.00;3.08;;;12.30;99.90;;;;;;4131423;28;20058;-71
2021/10/01 03:38:55;;;;;;;7.60;3.30;;;12.20;99.90;;;;;;4111701;28;20102;-73
2021/10/01 03:40:59;;;;;;;8.23;4.47;;;12.20;99.90;;;;;;4114978;28;20039;-73
2021/10/01 03:43:00;;;;;;;5.30;2.85;;;12.20;99.90;;;;;;4115942;28;20112;-72
2021/10/01 03:45:02;;;;;;;4.13;2.83;;;12.20;99.90;;;;;;4114841;28;20522;-73
2021/10/01 03:47:03;;;;;;;4.13;2.58;;;12.10;99.90;;;;;;4113235;28;20113;-72
2021/10/01 03:49:04;;;;;;;6.75;2.60;;;12.10;99.90;;;;;;4099059;28;20059;-71
2021/10/01 03:51:05;;;;;;;4.63;2.72;;;12.00;99.90;;;;;;4114604;28;20039;-71
2021/10/01 03:53:06;;;;;;;4.00;2.50;;;11.80;99.90;;;;;;4100692;28;20089;-71
2021/10/01 03:55:08;;;;;;;5.90;2.58;;;11.70;99.90;;;;;;4114773;28;20534;-72
2021/10/01 03:57:09;;;;;;;6.10;3.40;;;11.70;99.90;;;;;;4115609;28;20514;-73
2021/10/01 03:59:10;;;;;;;7.35;2.85;;;11.60;99.90;;;;;;4114997;28;20283;-71
2021/10/01 04:01:10;;;;;;;6.32;2.88;;;11.50;99.90;;;;;;4113288;28;20178;-72
2021/10/01 04:03:12;;;;;;;4.65;2.65;;;11.50;99.90;;;;;;4114650;28;20042;-71
2021/10/01 04:05:16;;;;;;;6.03;2.90;;;11.50;99.90;;;;;;4109081;28;20078;-72
2021/10/01 04:07:17;;;;;;;6.55;2.90;;;11.60;99.90;;;;;;4109355;28;20035;-72
2021/10/01 04:09:18;;;;;;;7.80;3.22;;;11.60;99.90;;;;;;4107461;28;20047;-73
2021/10/01 04:11:20;;;;;;;7.60;2.92;;;11.50;99.90;;;;;;4117122;28;20041;-72
2021/10/01 04:13:21;;;;;;;8.18;3.30;;;11.60;99.90;;;;;;4114580;28;20519;-71
2021/10/01 04:15:22;;;;;;;5.70;2.60;;;11.60;99.90;;;;;;4114033;28;20050;-72
2021/10/01 04:17:23;;;;;;;7.65;3.25;;;11.60;99.90;;;;;;4104693;28;20067;-72
2021/10/01 04:19:24;;;;;;;6.55;2.67;;;11.60;99.90;;;;;;4109125;28;20709;-73
2021/10/01 04:21:25;;;;;;;5.38;3.75;;;11.50;99.90;;;;;;4113598;28;20047;-72
2021/10/01 04:23:26;;;;;;;4.20;2.55;;;11.50;99.90;;;;;;4097644;28;20035;-71
2021/10/01 04:25:27;;;;;;;6.72;2.90;;;11.40;99.90;;;;;;4115426;28;20049;-71
2021/10/01 04:27:27;;;;;;;5.78;2.97;;;11.50;99.90;;;;;;4113524;28;20038;-71
2021/10/01 04:29:28;;;;;;;5.55;3.20;;;11.50;99.90;;;;;;4113644;28;20039;-72
2021/10/01 04:31:29;;;;;;;7.28;2.85;;;11.50;99.90;;;;;;4127355;28;20038;-72
2021/10/01 04:33:34;;;;;;;4.95;2.70;;;11.50;99.90;;;;;;4114179;28;20050;-72
2021/10/01 04:35:34;;;;;;;5.03;2.63;;;11.50;99.90;;;;;;4115745;28;20043;-72
2021/10/01 04:37:35;;;;;;;3.60;2.88;;;11.50;99.90;;;;;;4114657;28;20042;-72
2021/10/01 04:39:36;;;;;;;15.48;3.83;;;11.50;99.90;;;;;;4112731;28;20030;-72
2021/10/01 04:41:36;;;;;;;6.65;2.92;;;11.50;99.90;;;;;;4115591;28;20062;-72
2021/10/01 04:43:37;;;;;;;5.60;2.90;;;11.60;99.90;;;;;;4114486;28;20071;-73
2021/10/01 04:45:38;;;;;;;7.32;2.75;;;11.60;99.90;;;;;;4115931;28;20046;-73
2021/10/01 04:47:39;;;;;;;5.63;2.92;;;11.50;99.90;;;;;;4099558;28;20031;-72
2021/10/01 04:49:40;;;;;;;7.53;3.10;;;11.40;99.90;;;;;;4113360;28;20046;-72
2021/10/01 04:51:40;;;;;;;9.50;2.78;;;11.40;99.90;;;;;;4114859;28;20687;-72
2021/10/01 04:53:41;;;;;;;5.85;2.97;;;11.30;99.90;;;;;;4113437;28;20073;-72
2021/10/01 04:55:46;;;;;;;9.95;3.42;;;11.40;99.90;;;;;;4101666;28;20038;-72
2021/10/01 04:57:49;;;;;;;9.63;2.90;;;11.40;99.90;;;;;;4106262;28;20039;-72
2021/10/01 04:59:50;;;;;;;7.80;2.63;;;11.50;99.90;;;;;;4119929;28;20128;-71
2021/10/01 05:01:51;;;;;;;8.50;2.85;;;11.50;99.90;;;;;;4104325;28;20043;-73
2021/10/01 05:03:51;;;;;;;5.05;2.63;;;11.40;99.90;;;;;;4113881;28;20038;-73
2021/10/01 05:05:52;;;;;;;10.40;3.45;;;11.50;99.90;;;;;;4097489;28;20082;-73
2021/10/01 05:07:53;;;;;;;10.00;3.75;;;11.50;99.90;;;;;;4130878;28;20045;-73
2021/10/01 05:09:53;;;;;;;5.43;3.13;;;11.60;99.90;;;;;;4107957;28;20094;-73
2021/10/01 05:11:54;;;;;;;7.03;3.00;;;11.60;99.90;;;;;;4111835;28;20109;-73
2021/10/01 05:13:56;;;;;;;8.15;2.60;;;11.60;99.90;;;;;;4127193;28;20109;-72
2021/10/01 05:15:56;;;;;;;6.20;2.80;;;11.60;99.90;;;;;;4114088;28;20117;-72
2021/10/01 05:17:58;;;;;;;9.45;3.17;;;11.70;99.90;;;;;;4128408;28;20117;-73
2021/10/01 05:20:00;;;;;;;5.78;3.25;;;11.70;99.90;;;;;;4112290;28;20042;-72
2021/10/01 05:22:01;;;;;;;5.65;2.67;;;11.80;99.90;;;;;;4113878;28;20527;-72
2021/10/01 05:24:02;;;;;;;5.00;2.20;;;11.70;99.90;;;;;;4111374;28;20642;-72
2021/10/01 05:26:03;;;;;;;6.38;2.92;;;11.70;99.90;;;;;;4114856;28;20035;-71
2021/10/01 05:28:04;;;;;;;8.60;3.33;;;11.80;99.90;;;;;;4117717;28;20118;-72
2021/10/01 05:30:06;;;;;;;4.43;2.78;;;11.70;99.90;;;;;;4119467;28;20034;-72
2021/10/01 05:32:07;;;;;;;7.00;3.25;;;11.60;99.90;;;;;;4111694;28;20035;-72
2021/10/01 05:34:08;;;;;;;10.65;2.63;;;11.60;99.90;;;;;;4115031;28;20047;-72
2021/10/01 05:36:10;;;;;;;5.72;3.10;;;11.70;99.90;;;;;;4112260;28;20050;-72
2021/10/01 05:38:13;;;;;;;7.05;3.47;;;11.80;99.90;;;;;;4097885;28;20035;-71
2021/10/01 05:40:13;;;;;;;7.38;3.67;;;11.80;99.90;;;;;;4113002;28;20066;-72
2021/10/01 05:42:14;;;;;;;6.18;3.10;;;11.90;99.90;;;;;;4110110;28;20034;-72
2021/10/01 05:44:15;;;;;;;7.97;3.70;;;11.90;99.90;;;;;;4115122;28;20121;-72
2021/10/01 05:46:17;;;;;;;4.88;2.70;;;11.90;99.90;;;;;;4112147;28;20178;-72
2021/10/01 05:48:18;;;;;;;4.65;3.05;;;11.90;99.90;;;;;;4112667;28;20055;-72
2021/10/01 05:50:21;;;;;;;5.72;3.15;;;12.00;99.90;;;;;;4112049;28;20387;-72
2021/10/01 05:52:25;;;;;;;4.20;2.83;;;12.20;99.90;;;;;;4114037;28;20046;-73
2021/10/01 05:54:26;;;;;;;10.00;2.80;;;12.10;99.90;;;;;;4112141;28;20054;-73
2021/10/01 05:56:28;;;;;;;5.95;3.15;;;12.20;99.90;;;;;;4126416;28;20216;-72
2021/10/01 05:58:29;;;;;;;5.72;2.67;;;12.20;99.90;;;;;;4129336;28;20458;-72
2021/10/01 06:00:30;;;;;;;5.15;3.15;;;12.20;99.90;;;;;;4096815;28;20047;-72
2021/10/01 06:02:30;;;;;;;5.65;2.90;;;12.20;99.90;;;;;;4127007;28;20041;-73
2021/10/01 06:04:31;;;;;;;12.30;2.97;;;12.30;99.90;;;;;;4098330;28;20039;-72
2021/10/01 06:06:33;;;;;;;4.38;2.88;;;12.30;99.90;;;;;;4105645;28;20500;-73
2021/10/01 06:08:33;;;;;;;8.35;3.20;;;12.30;99.90;;;;;;4096975;28;20082;-72
2021/10/01 06:10:34;;;;;;;5.20;3.08;;;12.40;99.90;;;;;;4112210;28;20047;-72
2021/10/01 06:12:36;;;;;;;5.95;2.75;;;12.40;99.90;;;;;;4123126;28;20430;-72
2021/10/01 06:14:37;;;;;;;6.93;2.85;;;12.50;99.90;;;;;;4127520;28;20046;-72
2021/10/01 06:16:38;;;;;;;6.80;2.90;;;12.40;99.90;;;;;;4116976;28;20081;-72
2021/10/01 06:18:39;;;;;;;9.15;4.53;;;12.30;99.90;;;;;;4111687;28;20150;-73
2021/10/01 06:20:40;;;;;;;12.82;3.78;;;12.30;99.90;;;;;;4109567;28;20031;-73
2021/10/01 06:22:41;;;;;;;7.15;3.65;;;12.30;99.90;;;;;;4124361;28;20333;-70
2021/10/01 06:24:42;;;;;;;7.95;3.55;;;12.20;99.90;;;;;;4115794;28;20383;-72
2021/10/01 06:26:43;;;;;;;7.78;3.35;;;12.30;99.90;;;;;;4119294;28;20133;-71
2021/10/01 06:28:44;;;;;;;6.10;3.00;;;12.30;99.90;;;;;;4112549;28;20126;-71
2021/10/01 06:30:45;;;;;;;6.57;3.40;;;12.30;99.90;;;;;;4109591;28;20075;-72
2021/10/01 06:32:46;;;;;;;7.95;3.33;;;12.30;99.90;;;;;;4128462;28;20034;-71
2021/10/01 06:34:47;;;;;;;7.47;3.63;;;12.20;99.90;;;;;;4111171;28;20065;-72
2021/10/01 06:36:47;;;;;;;5.80;3.72;;;12.20;99.90;;;;;;4112332;28;20038;-72
2021/10/01 06:38:52;;;;;;;9.45;3.35;;;12.20;99.90;;;;;;4111304;28;20042;-72
2021/10/01 06:40:53;;;;;;;9.23;4.35;;;12.30;99.90;;;;;;4111850;28;20545;-71
2021/10/01 06:42:55;;;;;;;8.25;3.28;;;12.40;99.90;;;;;;4112849;28;20047;-71
2021/10/01 06:44:57;;;;;;;7.00;3.60;;;12.40;99.90;;;;;;4126340;28;20030;-71
2021/10/01 06:47:10;;;;;;;6.13;2.90;;;12.30;99.90;;;;;;4111268;28;20042;-72
2021/10/01 06:51:44;;;;;;;6.28;2.88;;;12.40;99.90;;;;;;4113190;28;20051;-72
2021/10/01 07:24:16;;;;;;;7.60;2.95;;;12.90;99.90;;;;;;4124878;28;20550;-72
2021/10/01 07:29:38;;;;;;;8.82;2.78;;;13.00;99.90;;;;;;4126141;28;20042;-72
2021/10/01 08:19:42;;;;;;;6.28;2.63;;;14.50;99.90;;;;;;4111839;28;20042;-72
2021/10/01 08:21:43;;;;;;;5.72;2.97;;;14.50;99.90;;;;;;4114530;28;20366;-72
2021/10/01 08:23:44;;;;;;;5.93;3.00;;;14.50;99.90;;;;;;4123211;28;20441;-72
2021/10/01 08:25:45;;;;;;;6.03;2.53;;;14.50;99.90;;;;;;4112630;28;20045;-72
2021/10/01 08:27:46;;;;;;;5.68;2.63;;;14.50;99.90;;;;;;4112342;28;20494;-71
2021/10/01 08:29:47;;;;;;;7.97;2.67;;;14.50;99.90;;;;;;4112330;28;20049;-72
2021/10/01 08:31:49;;;;;;;12.48;2.85;;;14.40;99.90;;;;;;4111794;28;20047;-72
2021/10/01 08:33:49;;;;;;;9.13;3.20;;;14.40;99.90;;;;;;4110955;28;20078;-71
2021/10/01 08:35:50;;;;;;;3.92;2.30;;;14.40;99.90;;;;;;4125033;28;20390;-72
2021/10/01 08:37:54;;;;;;;7.35;2.78;;;14.50;99.90;;;;;;4124521;28;20031;-71
2021/10/01 08:39:55;;;;;;;7.80;2.72;;;14.50;99.90;;;;;;4112891;28;20113;-71
2021/10/01 08:41:57;;;;;;;9.82;2.97;;;14.50;99.90;;;;;;4111423;28;20093;-72
2021/10/01 08:43:58;;;;;;;5.73;4.10;;;14.50;99.90;;;;;;4108325;28;20035;-72
2021/10/01 08:46:01;;;;;;;7.20;2.78;;;14.50;99.90;;;;;;4111892;28;20070;-73
2021/10/01 08:48:02;;;;;;;8.82;3.85;;;14.50;99.90;;;;;;4128290;28;20593;-72
2021/10/01 08:50:05;;;;;;;8.25;3.03;;;14.80;99.90;;;;;;4112681;28;20047;-72
2021/10/01 08:52:08;;;;;;;6.78;2.40;;;14.90;99.90;;;;;;4114315;28;20057;-71
2021/10/01 08:54:09;;;;;;;5.07;2.83;;;15.10;99.90;;;;;;4106408;28;20030;-72
2021/10/01 08:56:10;;;;;;;7.93;2.47;;;15.20;99.90;;;;;;4112673;28;20041;-72
2021/10/01 08:58:11;;;;;;;5.00;2.40;;;15.40;99.90;;;;;;4110392;28;20204;-72
2021/10/01 09:00:16;;;;;;;8.13;3.05;;;15.50;99.90;;;;;;4128997;28;20034;-72
2021/10/01 09:02:18;;;;;;;6.05;3.08;;;15.50;99.90;;;;;;4112655;28;20470;-72
2021/10/01 09:04:19;;;;;;;7.65;2.75;;;15.50;99.90;;;;;;4114108;28;20038;-72
2021/10/01 09:06:20;;;;;;;6.03;3.00;;;15.50;99.90;;;;;;4112499;28;20046;-71
2021/10/01 09:08:24;;;;;;;6.10;2.67;;;15.60;99.90;;;;;;4097470;28;21118;-71
2021/10/01 09:10:25;;;;;;;6.90;2.80;;;15.50;99.90;;;;;;4126107;28;20050;-71
2021/10/01 09:12:26;;;;;;;9.95;3.95;;;15.40;99.90;;;;;;4107304;28;20045;-71
2021/10/01 09:14:27;;;;;;;7.28;2.50;;;15.00;99.90;;;;;;4113332;28;20490;-71
2021/10/01 09:16:30;;;;;;;7.53;2.58;;;14.70;99.90;;;;;;4110221;28;20098;-72
2021/10/01 09:18:33;;;;;;;8.00;3.38;;;14.60;99.90;;;;;;4105876;28;20121;-72
2021/10/01 09:20:34;;;;;;;9.27;3.33;;;14.60;99.90;;;;;;4108209;28;20097;-73
2021/10/01 09:22:37;;;;;;;8.63;2.78;;;14.50;99.90;;;;;;4112637;28;20055;-73
2021/10/01 09:24:43;;;;;;;4.28;2.50;;;14.40;99.90;;;;;;4111017;28;20027;-72
2021/10/01 09:26:55;;;;;;;7.60;3.08;;;14.20;99.90;;;;;;4108723;28;20101;-72
2021/10/01 09:29:07;;;;;;;10.00;2.75;;;14.40;99.90;;;;;;4112016;28;20027;-73
2021/10/01 09:31:08;;;;;;;4.68;2.72;;;14.60;99.90;;;;;;4122803;28;20129;-72
2021/10/01 09:33:12;;;;;;;4.80;2.60;;;14.70;99.90;;;;;;4113057;28;20061;-72
2021/10/01 09:35:16;;;;;;;6.35;3.03;;;14.80;99.90;;;;;;4111665;28;20121;-71
2021/10/01 09:37:27;;;;;;;6.22;2.60;;;14.90;99.90;;;;;;4096468;28;20035;-73
2021/10/01 09:39:32;;;;;;;7.40;3.45;;;15.10;99.90;;;;;;4123456;28;20133;-72
2021/10/01 09:41:36;;;;;;;9.35;4.18;;;15.10;99.90;;;;;;4112070;28;20523;-72
2021/10/01 09:43:37;;;;;;;6.43;2.50;;;15.30;99.90;;;;;;4114063;28;20125;-72
2021/10/01 09:45:38;;;;;;;5.53;2.63;;;15.40;99.90;;;;;;4112903;28;20474;-72
2021/10/01 09:47:46;;;;;;;5.18;2.58;;;15.60;99.90;;;;;;4113191;28;20031;-72
2021/10/01 09:50:01;;;;;;;6.53;3.00;;;15.80;99.90;;;;;;4104899;28;20050;-72
2021/10/01 09:52:03;;;;;;;8.45;2.92;;;16.00;99.90;;;;;;4113013;28;20548;-72
2021/10/01 09:54:13;;;;;;;3.10;2.67;;;16.00;99.90;;;;;;4114296;28;20034;-71
2021/10/01 09:56:31;;;;;;;7.25;2.53;;;15.90;99.90;;;;;;4124997;28;20058;-72
2021/10/01 09:58:32;;;;;;;4.90;2.95;;;15.70;99.90;;;;;;4112708;28;20042;-72
2021/10/01 10:00:52;;;;;;;7.75;3.00;;;15.40;99.90;;;;;;4111655;28;20073;-73
2021/10/01 10:02:53;;;;;;;6.93;3.33;;;15.00;99.90;;;;;;4106432;28;20054;-73
2021/10/01 10:04:55;;;;;;;9.57;3.80;;;14.80;99.90;;;;;;4127432;28;20401;-72
2021/10/01 10:06:56;;;;;;;8.73;3.85;;;14.40;99.90;;;;;;4129841;28;20046;-72
2021/10/01 10:09:01;;;;;;;8.93;3.63;;;14.20;99.90;;;;;;4112599;28;20540;-73
2021/10/01 10:11:25;;;;;;;6.72;3.08;;;14.00;99.90;;;;;;4122071;28;20045;-71
2021/10/01 10:13:44;;;;;;;6.50;3.78;;;13.90;99.90;;;;;;4107621;28;20386;-72
2021/10/01 10:16:12;;;;;;;7.82;3.92;;;13.80;99.90;;;;;;4112592;28;20041;-73
2021/10/01 10:18:19;;;;;;;8.38;3.90;;;13.70;99.90;;;;;;4108910;28;20453;-71
2021/10/01 10:20:20;;;;;;;12.60;4.50;;;13.70;99.90;;;;;;4112201;28;20035;-71
2021/10/01 10:22:25;;;;;;;8.75;3.92;;;13.70;99.90;;;;;;4111164;28;20039;-71
2021/10/01 10:24:26;;;;;;;7.22;3.10;;;13.60;99.90;;;;;;4121025;28;20039;-71
2021/10/01 10:26:28;;;;;;;5.80;3.42;;;13.70;99.90;;;;;;4107490;28;20054;-71
2021/10/01 10:28:29;;;;;;;10.20;3.47;;;13.70;99.90;;;;;;4112268;28;20042;-72
2021/10/01 10:30:30;;;;;;;10.55;4.07;;;13.80;99.90;;;;;;4113110;28;20533;-70
2021/10/01 10:32:32;;;;;;;6.78;4.28;;;13.90;99.90;;;;;;4129407;28;20161;-70
2021/10/01 10:34:32;;;;;;;8.85;3.28;;;13.90;99.90;;;;;;4127918;28;20038;-72
2021/10/01 10:36:40;;;;;;;9.80;3.50;;;14.00;99.90;;;;;;4107145;28;20042;-71
2021/10/01 10:38:41;;;;;;;11.55;4.18;;;14.20;99.90;;;;;;4119687;28;20070;-69
2021/10/01 10:40:42;;;;;;;12.57;4.03;;;14.50;99.90;;;;;;4112442;28;20137;-70
2021/10/01 10:42:46;;;;;;;15.52;4.45;;;14.90;99.90;;;;;;4130253;28;20026;-70
2021/10/01 10:44:57;;;;;;;12.05;3.35;;;15.30;99.90;;;;;;4116564;28;20042;-70
2021/10/01 10:46:58;;;;;;;6.05;3.72;;;15.50;99.90;;;;;;4110115;28;20035;-69
2021/10/01 10:49:23;;;;;;;5.03;2.53;;;15.80;99.90;;;;;;4128139;28;20723;-69
2021/10/01 10:52:05;;;;;;;11.68;3.72;;;15.90;99.90;;;;;;4116586;28;20049;-69
2021/10/01 10:54:08;;;;;;;5.05;3.03;;;16.00;99.90;;;;;;4114920;28;20154;-70
2021/10/01 10:56:16;;;;;;;7.18;2.88;;;16.00;99.90;;;;;;4112439;28;20160;-70
2021/10/01 10:58:26;;;;;;;8.15;2.85;;;16.10;99.90;;;;;;4114382;28;20067;-71
2021/10/01 11:00:31;;;;;;;11.98;3.50;;;16.20;99.90;;;;;;4128487;28;20026;-69
2021/10/01 11:02:44;;;;;;;4.10;2.35;;;16.50;99.90;;;;;;4129425;28;20042;-72
2021/10/01 11:04:49;;;;;;;7.00;3.58;;;16.80;99.90;;;;;;4127218;28;20038;-71
2021/10/01 11:06:49;;;;;;;7.38;3.17;;;17.10;99.90;;;;;;4095865;28;20043;-69
2021/10/01 11:09:13;;;;;;;7.18;3.10;;;17.00;99.90;;;;;;4105169;28;20394;-72
2021/10/01 11:11:34;;;;;;;8.05;3.38;;;17.00;99.90;;;;;;4108719;28;20122;-72
2021/10/01 11:13:35;;;;;;;5.18;2.67;;;17.00;99.90;;;;;;4104655;28;21134;-69
2021/10/01 11:15:36;;;;;;;6.90;2.88;;;16.90;99.90;;;;;;4112093;28;20106;-72
2021/10/01 11:17:37;;;;;;;7.05;2.85;;;17.10;99.90;;;;;;4128158;28;20177;-72
2021/10/01 11:19:49;;;;;;;5.15;3.25;;;17.20;99.90;;;;;;4102255;28;20035;-73
2021/10/01 11:21:50;;;;;;;7.43;2.90;;;17.50;99.90;;;;;;4107506;28;20447;-71
2021/10/01 11:23:59;;;;;;;9.60;2.70;;;17.70;99.90;;;;;;4112898;28;20050;-71
2021/10/01 11:26:00;;;;;;;7.45;3.00;;;17.90;99.90;;;;;;4112992;28;20042;-71
2021/10/01 11:28:02;;;;;;;5.45;2.55;;;17.90;99.90;;;;;;4113815;28;20073;-71
2021/10/01 11:30:11;;;;;;;8.30;2.78;;;18.00;99.90;;;;;;4114404;28;20027;-72
2021/10/01 11:32:27;;;;;;;3.78;2.53;;;18.10;99.90;;;;;;4115638;28;20410;-72
2021/10/01 11:34:41;;;;;;;5.40;2.92;;;18.10;99.90;;;;;;4114313;28;20156;-70
2021/10/01 11:36:41;;;;;;;4.82;2.70;;;18.30;99.90;;;;;;4115793;28;20047;-72
2021/10/01 11:38:42;;;;;;;11.73;3.17;;;18.30;99.90;;;;;;4114714;28;20453;-71
2021/10/01 11:40:43;;;;;;;12.15;2.70;;;18.20;99.90;;;;;;4114544;28;20130;-72
2021/10/01 11:42:48;;;;;;;4.95;2.55;;;18.40;99.90;;;;;;4112906;28;20046;-71
2021/10/01 11:44:49;;;;;;;5.70;2.60;;;18.50;99.90;;;;;;4113935;28;20039;-71
2021/10/01 11:46:50;;;;;;;7.13;2.92;;;18.70;99.90;;;;;;4098770;28;20086;-71
2021/10/01 11:48:51;;;;;;;4.80;2.40;;;18.60;99.90;;;;;;4115299;28;20031;-70
2021/10/01 11:50:52;;;;;;;8.02;2.75;;;18.60;99.90;;;;;;4130335;28;20575;-71
2021/10/01 11:52:53;;;;;;;8.18;2.60;;;18.40;99.90;;;;;;4113724;28;20046;-72
2021/10/01 11:54:59;;;;;;;7.82;3.50;;;18.30;99.90;;;;;;4115812;28;20027;-71
2021/10/01 11:57:06;;;;;;;5.80;2.33;;;18.30;99.90;;;;;;4111874;28;20039;-72
2021/10/01 11:59:07;;;;;;;3.72;2.45;;;18.40;99.90;;;;;;4113482;28;20038;-72
2021/10/01 12:01:17;;;;;;;5.90;2.45;;;18.50;99.90;;;;;;4108159;28;20075;-73
2021/10/01 12:03:20;;;;;;;9.98;2.97;;;18.70;99.90;;;;;;4123018;28;20062;-72
2021/10/01 12:05:34;;;;;;;7.13;2.80;;;18.70;99.90;;;;;;4114127;28;20216;-73
2021/10/01 12:07:49;;;;;;;5.43;2.70;;;18.70;99.90;;;;;;4114310;28;20034;-72
2021/10/01 12:10:08;;;;;;;5.97;2.85;;;18.60;99.90;;;;;;4130000;28;20661;-71
2021/10/01 12:12:09;;;;;;;5.57;2.58;;;18.40;99.90;;;;;;4114987;28;20046;-71